Time;durP1;ratioP1;P1;durP2;ratioP2;P2;SDS_P1;SDS_P2;PMS_P1;PMS_P2;Temp;Humidity;BMP_temperature;BMP_pressure;BME280_temperature;BME280_humidity;BME280_pressure;Samples;Min_cycle;Max_cycle;Signal;HPM_P1;HPM_P2
2022/05/31 00:00:43;;;;;;;8.70;2.92;;;;;;;19.67;66.72;101010.22;2080012;28;20041;-72
2022/05/31 00:02:08;;;;;;;8.00;3.17;;;;;;;19.67;66.59;101003.97;2074436;28;20128;-72
2022/05/31 00:03:30;;;;;;;5.95;2.53;;;;;;;19.71;66.54;101003.00;2076586;28;20052;-72
2022/05/31 00:04:53;;;;;;;6.70;2.83;;;;;;;19.73;66.44;101006.53;2083005;28;20053;-72
2022/05/31 00:06:15;;;;;;;12.30;2.70;;;;;;;19.73;66.46;101006.53;2083527;28;20435;-71
2022/05/31 00:07:38;;;;;;;8.27;3.33;;;;;;;19.71;66.50;101003.88;2077192;28;20052;-72
2022/05/31 00:09:00;;;;;;;6.80;3.17;;;;;;;19.67;66.64;101001.31;2081420;28;20037;-71
2022/05/31 00:10:23;;;;;;;5.10;2.70;;;;;;;19.62;66.87;101004.06;2084570;28;20049;-72
2022/05/31 00:11:45;;;;;;;10.70;4.00;;;;;;;19.63;66.76;101008.50;2085561;28;20110;-72
2022/05/31 00:13:08;;;;;;;7.53;3.03;;;;;;;19.64;66.84;101007.59;2084567;28;20072;-72
2022/05/31 00:14:30;;;;;;;9.05;2.78;;;;;;;19.62;66.53;101008.53;2084441;28;20151;-72
2022/05/31 00:15:52;;;;;;;7.82;2.80;;;;;;;19.60;66.48;101000.53;2078754;28;20052;-74
2022/05/31 00:17:16;;;;;;;4.88;2.55;;;;;;;19.61;66.32;101002.31;2086570;28;20072;-72
2022/05/31 00:18:39;;;;;;;6.95;2.53;;;;;;;19.60;66.36;100995.16;2086292;28;20147;-72
2022/05/31 00:20:01;;;;;;;7.40;2.90;;;;;;;19.61;66.40;100996.06;2086897;28;20041;-72
2022/05/31 00:21:32;;;;;;;7.65;2.72;;;;;;;19.63;66.56;100995.09;2085073;28;20072;-71
2022/05/31 00:22:54;;;;;;;6.40;2.58;;;;;;;19.64;66.36;100998.66;2079789;28;20490;-72
2022/05/31 00:24:19;;;;;;;7.55;3.00;;;;;;;19.61;66.41;100993.38;2083179;28;20189;-72
2022/05/31 00:25:41;;;;;;;6.57;2.90;;;;;;;19.54;66.46;100992.59;2087136;28;20133;-72
2022/05/31 00:27:05;;;;;;;10.07;3.20;;;;;;;19.49;66.38;100995.34;2078226;28;20103;-72
2022/05/31 00:28:26;;;;;;;8.90;2.90;;;;;;;19.45;66.81;100993.59;2083423;28;20160;-72
2022/05/31 00:29:49;;;;;;;7.10;2.75;;;;;;;19.43;66.74;100990.06;2078863;28;20469;-73
2022/05/31 00:31:12;;;;;;;10.43;3.28;;;;;;;19.38;66.83;100988.38;2076662;28;20045;-72
2022/05/31 00:32:39;;;;;;;4.65;2.42;;;;;;;19.34;67.00;100989.34;2084616;28;20064;-72
2022/05/31 00:34:00;;;;;;;6.32;2.47;;;;;;;19.26;67.11;100986.78;2087026;28;20057;-73
2022/05/31 00:35:25;;;;;;;7.32;2.85;;;;;;;19.20;67.32;100984.22;2080189;28;20045;-72
2022/05/31 00:36:49;;;;;;;6.78;2.42;;;;;;;19.17;67.32;100994.06;2078641;28;20152;-72
2022/05/31 00:38:13;;;;;;;7.22;2.63;;;;;;;19.18;67.39;100983.34;2078733;28;20068;-72
2022/05/31 00:39:36;;;;;;;7.50;2.50;;;;;;;19.20;67.44;100986.00;2083411;28;20485;-72
2022/05/31 00:41:23;;;;;;;6.25;2.35;;;;;;;19.24;67.21;100985.03;2083930;28;20417;-73
2022/05/31 00:42:53;;;;;;;6.03;2.70;;;;;;;19.29;67.06;100989.44;2080588;28;20486;-72
2022/05/31 00:44:19;;;;;;;7.72;2.90;;;;;;;19.31;66.87;100992.94;2078985;28;20147;-72
2022/05/31 00:45:45;;;;;;;8.60;3.17;;;;;;;19.35;66.72;100981.28;2079014;28;20054;-72
2022/05/31 00:47:10;;;;;;;6.22;2.20;;;;;;;19.37;66.55;100986.59;2082098;28;20388;-73
2022/05/31 00:48:37;;;;;;;5.50;2.67;;;;;;;19.37;66.37;100991.94;2086952;28;20559;-72
2022/05/31 00:50:04;;;;;;;10.38;2.92;;;;;;;19.37;66.34;100986.59;2080100;28;20145;-72
2022/05/31 00:51:36;;;;;;;7.47;3.28;;;;;;;19.37;66.23;100990.16;2079137;28;20484;-72
2022/05/31 00:53:04;;;;;;;10.07;4.38;;;;;;;19.36;66.13;100987.53;2086813;28;20048;-73
2022/05/31 00:54:28;;;;;;;7.38;2.95;;;;;;;19.34;66.01;100998.25;2084851;28;20560;-72
2022/05/31 00:55:54;;;;;;;5.22;2.22;;;;;;;19.33;66.02;100992.91;2077878;28;20052;-72
2022/05/31 00:57:16;;;;;;;11.23;3.90;;;;;;;19.31;66.15;100994.72;2073850;28;20124;-72
2022/05/31 00:58:43;;;;;;;6.80;2.65;;;;;;;19.32;66.10;100993.81;2077133;28;20068;-73
2022/05/31 01:00:10;;;;;;;12.32;4.40;;;;;;;19.30;66.21;100993.84;2079062;28;20045;-72
2022/05/31 01:01:38;;;;;;;8.52;2.90;;;;;;;19.29;66.37;100993.91;2078699;28;20049;-72
2022/05/31 01:03:01;;;;;;;6.35;2.67;;;;;;;19.27;66.47;100995.72;2086436;28;20128;-74
2022/05/31 01:04:32;;;;;;;7.97;2.80;;;;;;;19.23;66.44;100994.84;2072878;28;20454;-72
2022/05/31 01:05:54;;;;;;;7.50;3.00;;;;;;;19.19;66.58;101001.19;2071105;28;20053;-73
2022/05/31 01:07:19;;;;;;;9.52;3.13;;;;;;;19.20;66.64;100986.00;2076994;28;20095;-73
2022/05/31 01:08:45;;;;;;;6.47;2.67;;;;;;;19.21;66.46;100987.78;2070915;28;20053;-72
2022/05/31 01:10:26;;;;;;;7.32;2.78;;;;;;;19.15;66.55;100990.56;2080659;28;20453;-72
2022/05/31 01:12:07;;;;;;;7.70;2.53;;;;;;;19.10;66.78;100991.50;2089056;28;20095;-73
2022/05/31 01:13:48;;;;;;;6.13;2.45;;;;;;;19.07;66.76;100991.56;2080915;28;20081;-73
2022/05/31 01:15:30;;;;;;;8.35;2.75;;;;;;;19.06;66.77;100991.56;2080528;28;20050;-73
2022/05/31 01:17:14;;;;;;;7.00;2.63;;;;;;;19.04;66.67;100990.69;2087884;28;20513;-73
2022/05/31 01:18:55;;;;;;;9.60;3.10;;;;;;;19.01;66.78;100988.09;2087989;28;20053;-72
2022/05/31 01:20:52;;;;;;;7.80;3.13;;;;;;;19.05;66.72;100985.34;2082625;28;20122;-73
2022/05/31 01:22:28;;;;;;;8.00;2.63;;;;;;;19.09;66.77;100984.41;2088069;28;20115;-72
2022/05/31 01:23:59;;;;;;;6.07;2.53;;;;;;;19.11;66.54;100990.59;2080208;28;20096;-72
2022/05/31 01:25:36;;;;;;;10.85;3.10;;;;;;;19.09;66.56;100987.06;2085985;28;20506;-72
2022/05/31 01:27:04;;;;;;;8.10;2.78;;;;;;;19.06;66.77;100987.09;2087890;28;20049;-73
2022/05/31 01:28:39;;;;;;;12.18;3.67;;;;;;;19.05;66.92;100990.69;2078213;28;20104;-72
2022/05/31 01:30:07;;;;;;;11.55;3.35;;;;;;;19.06;66.78;100981.75;2075939;28;20068;-73
2022/05/31 01:31:35;;;;;;;7.32;2.85;;;;;;;19.07;66.86;100988.88;2076237;28;20361;-73
2022/05/31 01:33:04;;;;;;;6.25;2.78;;;;;;;19.04;66.88;100980.88;2078970;28;20088;-73
2022/05/31 01:34:33;;;;;;;10.02;3.10;;;;;;;19.02;66.79;100985.41;2079146;28;20045;-72
2022/05/31 01:36:01;;;;;;;7.50;2.85;;;;;;;19.03;66.74;100984.47;2072445;28;20050;-73
2022/05/31 01:37:28;;;;;;;6.68;3.05;;;;;;;19.04;66.82;100988.03;2078752;28;21894;-72
2022/05/31 01:38:56;;;;;;;10.25;3.00;;;;;;;19.05;66.69;100985.34;2073669;28;20045;-72
2022/05/31 01:40:26;;;;;;;7.50;3.17;;;;;;;19.06;66.68;100983.53;2072338;28;20053;-72
2022/05/31 01:41:54;;;;;;;8.00;3.05;;;;;;;19.07;66.49;100988.00;2079010;28;20117;-73
2022/05/31 01:43:17;;;;;;;7.72;3.00;;;;;;;19.06;66.47;100987.09;2080769;28;20057;-73
2022/05/31 01:44:43;;;;;;;7.10;3.28;;;;;;;19.06;66.63;100986.22;2080209;28;20045;-73
2022/05/31 01:46:11;;;;;;;8.13;3.13;;;;;;;19.03;66.69;100979.09;2070795;28;20398;-72
2022/05/31 01:47:36;;;;;;;4.80;2.40;;;;;;;18.99;66.83;100982.75;2070677;28;20542;-73
2022/05/31 01:49:02;;;;;;;7.57;2.75;;;;;;;18.97;66.80;100987.22;2070296;28;20069;-72
2022/05/31 01:50:23;;;;;;;5.53;2.83;;;;;;;18.97;66.94;100989.06;2076099;28;20065;-72
2022/05/31 01:51:48;;;;;;;6.38;2.78;;;;;;;18.92;67.10;100989.09;2080212;28;20144;-72
2022/05/31 01:53:15;;;;;;;11.48;3.22;;;;;;;18.88;67.34;100987.41;2069985;28;20553;-72
2022/05/31 01:54:38;;;;;;;5.68;2.60;;;;;;;18.84;67.42;100985.66;2073651;28;20100;-72
2022/05/31 01:56:02;;;;;;;8.43;2.63;;;;;;;18.83;67.68;100978.56;2074671;28;20049;-73
2022/05/31 01:57:24;;;;;;;5.07;2.55;;;;;;;18.84;67.70;100984.78;2078358;28;20041;-72
2022/05/31 01:58:50;;;;;;;8.38;2.85;;;;;;;18.85;67.84;100981.19;2076901;28;20061;-72
2022/05/31 02:00:14;;;;;;;7.85;2.78;;;;;;;18.87;67.96;100984.72;2080671;28;20521;-72
2022/05/31 02:01:39;;;;;;;6.55;2.67;;;;;;;18.86;67.96;100982.97;2080607;28;20045;-73
2022/05/31 02:03:03;;;;;;;8.70;3.03;;;;;;;18.86;68.04;100978.50;2065242;28;20179;-73
2022/05/31 02:04:26;;;;;;;9.25;2.70;;;;;;;18.85;68.08;100982.06;2069841;28;20054;-72
2022/05/31 02:05:51;;;;;;;9.73;3.38;;;;;;;18.86;68.25;100983.84;2069818;28;20062;-73
2022/05/31 02:07:19;;;;;;;5.13;2.88;;;;;;;18.86;68.18;100981.16;2076215;28;20083;-72
2022/05/31 02:08:41;;;;;;;7.15;2.58;;;;;;;18.83;68.46;100983.91;2069415;28;20038;-73
2022/05/31 02:10:04;;;;;;;7.00;2.78;;;;;;;18.82;68.46;100978.56;2075479;28;20069;-72
2022/05/31 02:11:34;;;;;;;7.10;3.40;;;;;;;18.80;68.56;100983.94;2070576;28;20132;-72
2022/05/31 02:13:06;;;;;;;5.80;2.40;;;;;;;18.79;68.67;100987.50;2077710;28;20386;-73
2022/05/31 02:15:08;;;;;;;6.72;2.95;;;;;;;18.79;68.58;100987.50;2071814;28;20056;-73
2022/05/31 02:16:34;;;;;;;7.57;2.58;;;;;;;18.82;68.31;100992.84;2069038;28;20042;-73
2022/05/31 02:18:15;;;;;;;6.15;2.67;;;;;;;18.81;68.26;100993.75;2072111;28;20064;-73
2022/05/31 02:20:16;;;;;;;7.32;3.08;;;;;;;18.79;68.27;100986.63;2047582;28;20527;-73
2022/05/31 02:21:38;;;;;;;6.35;3.28;;;;;;;18.77;68.13;100992.03;2061088;28;20058;-73
2022/05/31 02:23:03;;;;;;;11.18;2.90;;;;;;;18.74;68.24;100992.06;2058246;28;20123;-73
2022/05/31 02:24:27;;;;;;;8.50;2.80;;;;;;;18.69;68.30;100992.13;2051277;28;20055;-73
2022/05/31 02:25:49;;;;;;;7.68;2.60;;;;;;;18.70;68.30;100991.22;2069443;28;20041;-72
2022/05/31 02:27:14;;;;;;;7.53;2.85;;;;;;;18.71;68.32;100987.63;2069848;28;20054;-72
2022/05/31 02:28:36;;;;;;;10.68;3.00;;;;;;;18.71;68.15;100987.63;2061752;28;20145;-72
2022/05/31 02:29:59;;;;;;;10.57;3.60;;;;;;;18.71;68.11;100992.09;2062179;28;20048;-72
2022/05/31 02:31:21;;;;;;;8.85;3.58;;;;;;;18.70;68.01;100991.22;2075320;28;20081;-72
2022/05/31 02:32:44;;;;;;;7.38;3.13;;;;;;;18.71;67.85;100986.72;2070924;28;20053;-72
2022/05/31 02:34:06;;;;;;;7.05;2.92;;;;;;;18.69;67.81;100984.09;2071867;28;20625;-72
2022/05/31 02:35:29;;;;;;;6.95;2.53;;;;;;;18.67;67.75;100990.38;2075125;28;20045;-72
2022/05/31 02:36:51;;;;;;;7.13;3.10;;;;;;;18.65;67.81;100989.50;2068770;28;20066;-72
2022/05/31 02:38:16;;;;;;;5.55;2.65;;;;;;;18.62;67.93;100981.53;2065674;28;20545;-72
2022/05/31 02:39:38;;;;;;;14.13;3.30;;;;;;;18.60;68.10;100980.66;2067435;28;20057;-73
2022/05/31 02:41:00;;;;;;;9.13;2.83;;;;;;;18.58;68.30;100988.69;2066773;28;20546;-72
2022/05/31 02:42:23;;;;;;;12.20;3.00;;;;;;;18.58;68.32;100983.34;2074986;28;20054;-72
2022/05/31 02:43:45;;;;;;;8.55;3.10;;;;;;;18.54;68.39;100989.63;2071138;28;20088;-72
2022/05/31 02:45:09;;;;;;;8.63;3.53;;;;;;;18.56;68.61;100990.53;2066510;28;20108;-72
2022/05/31 02:46:32;;;;;;;6.85;3.53;;;;;;;18.58;68.60;100995.84;2082567;28;20079;-73
2022/05/31 02:47:55;;;;;;;7.75;3.08;;;;;;;18.57;68.61;100988.75;2071617;28;20050;-72
2022/05/31 02:49:19;;;;;;;6.45;2.75;;;;;;;18.55;68.57;100990.50;2075237;28;20045;-72
2022/05/31 02:50:41;;;;;;;7.55;3.40;;;;;;;18.49;68.68;100991.47;2077512;28;20050;-73
2022/05/31 02:52:05;;;;;;;9.27;3.15;;;;;;;18.49;68.68;100991.47;2068737;28;20092;-73
2022/05/31 02:53:29;;;;;;;6.38;2.95;;;;;;;18.51;68.56;101000.34;2069165;28;20091;-73
2022/05/31 02:54:52;;;;;;;7.65;2.95;;;;;;;18.52;68.59;100995.88;2063503;28;20050;-72
2022/05/31 02:56:13;;;;;;;8.55;3.33;;;;;;;18.53;68.69;100995.88;2066974;28;20450;-72
2022/05/31 02:58:11;;;;;;;6.40;3.75;;;;;;;18.54;68.61;101002.09;2055515;28;20057;-73
2022/05/31 03:00:05;;;;;;;7.57;3.00;;;;;;;18.51;68.79;101000.34;2050471;28;20059;-72
2022/05/31 03:01:59;;;;;;;8.20;3.58;;;;;;;18.52;68.72;100999.44;2062260;28;20410;-72
2022/05/31 03:03:40;;;;;;;9.32;3.60;;;;;;;18.53;68.89;101003.88;2077541;28;20049;-72
2022/05/31 03:05:21;;;;;;;8.70;3.47;;;;;;;18.55;68.80;101004.78;2071757;28;20041;-72
2022/05/31 03:07:03;;;;;;;9.80;4.25;;;;;;;18.56;68.84;101005.69;2071836;28;20049;-72
2022/05/31 03:08:30;;;;;;;7.57;3.15;;;;;;;18.56;68.78;100998.53;2067285;28;20161;-72
2022/05/31 03:10:09;;;;;;;7.90;3.22;;;;;;;18.58;68.76;100998.50;2071443;28;20457;-73
2022/05/31 03:11:34;;;;;;;8.50;3.13;;;;;;;18.60;68.75;101002.06;2063915;28;20062;-72
2022/05/31 03:12:57;;;;;;;6.25;3.00;;;;;;;18.59;68.94;101000.28;2059524;28;20144;-72
2022/05/31 03:14:24;;;;;;;8.38;2.70;;;;;;;18.63;68.87;101008.25;2066518;28;20065;-72
2022/05/31 03:15:48;;;;;;;9.15;3.05;;;;;;;18.62;68.90;101005.59;2069458;28;20061;-72
2022/05/31 03:17:15;;;;;;;9.10;3.28;;;;;;;18.65;68.98;101005.53;2069083;28;20111;-72
2022/05/31 03:18:40;;;;;;;8.25;2.88;;;;;;;18.65;69.00;101005.53;2070045;28;20044;-72
2022/05/31 03:20:09;;;;;;;9.77;3.55;;;;;;;18.63;69.10;101005.59;2066171;28;20072;-72
2022/05/31 03:21:35;;;;;;;7.70;3.67;;;;;;;18.63;69.39;101004.69;2060417;28;20129;-72
2022/05/31 03:23:02;;;;;;;6.57;2.97;;;;;;;18.69;69.50;101015.31;2059204;28;20035;-72
2022/05/31 03:24:33;;;;;;;6.82;2.83;;;;;;;18.73;69.66;101016.13;2066735;28;20121;-72
2022/05/31 03:25:57;;;;;;;7.03;3.42;;;;;;;18.75;69.65;101017.91;2069013;28;20049;-72
2022/05/31 03:27:20;;;;;;;7.88;3.00;;;;;;;18.77;69.55;101018.78;2075146;28;20508;-72
2022/05/31 03:28:41;;;;;;;10.38;3.05;;;;;;;18.81;69.58;101017.81;2063603;28;20054;-73
2022/05/31 03:30:05;;;;;;;7.65;3.80;;;;;;;18.85;69.56;101011.50;2068718;28;20056;-72
2022/05/31 03:31:26;;;;;;;7.53;2.90;;;;;;;18.90;69.37;101016.81;2066168;28;20034;-72
2022/05/31 03:32:50;;;;;;;7.35;3.00;;;;;;;18.92;69.36;101018.53;2074647;28;20065;-72
2022/05/31 03:34:11;;;;;;;5.93;2.97;;;;;;;18.96;69.31;101024.75;2069346;28;20454;-72
2022/05/31 03:35:34;;;;;;;8.63;3.38;;;;;;;19.03;69.59;101024.59;2063622;28;20044;-72
2022/05/31 03:37:03;;;;;;;11.02;3.42;;;;;;;19.11;69.73;101022.69;2069674;28;20691;-72
2022/05/31 03:38:24;;;;;;;11.52;3.63;;;;;;;19.23;69.73;101026.13;2069702;28;20542;-72
2022/05/31 03:39:48;;;;;;;13.30;4.07;;;;;;;19.37;69.88;101027.66;2069117;28;20141;-73
2022/05/31 03:41:10;;;;;;;7.95;4.20;;;;;;;19.48;70.04;101027.53;2060985;28;20085;-72
2022/05/31 03:42:40;;;;;;;7.47;3.17;;;;;;;19.57;69.78;101027.34;2060206;28;20050;-73
2022/05/31 03:44:03;;;;;;;6.30;3.15;;;;;;;19.69;70.09;101024.44;2059975;28;20495;-72
2022/05/31 03:45:44;;;;;;;5.97;2.67;;;;;;;19.77;69.89;101022.53;2079674;28;20045;-73
2022/05/31 03:47:25;;;;;;;7.80;2.65;;;;;;;19.93;69.97;101016.91;2074342;28;20081;-72
2022/05/31 03:49:13;;;;;;;7.07;3.28;;;;;;;20.08;69.70;101022.88;2071599;28;20056;-72
2022/05/31 03:50:44;;;;;;;9.40;3.17;;;;;;;20.20;69.37;101022.63;2073376;28;20046;-72
2022/05/31 03:52:08;;;;;;;6.75;3.25;;;;;;;20.33;69.02;101017.03;2063139;28;20053;-72
2022/05/31 03:53:36;;;;;;;6.38;2.63;;;;;;;20.46;68.81;101022.13;2064244;28;20144;-72
2022/05/31 03:55:01;;;;;;;10.73;3.53;;;;;;;20.61;68.70;101020.94;2062979;28;20060;-72
2022/05/31 03:56:41;;;;;;;;;;;;;;;20.76;68.25;101019.69;2073844;28;20038;-71
2022/05/31 03:58:03;;;;;;;8.80;2.85;;;;;;;20.88;67.96;101024.78;2062265;28;19955;-72
2022/05/31 03:59:52;;;;;;;9.38;3.22;;;;;;;21.04;67.84;101021.72;2073054;28;20656;-72
2022/05/31 04:01:18;;;;;;;7.65;2.28;;;;;;;21.21;67.62;101020.44;2078415;28;20049;-72
2022/05/31 04:02:42;;;;;;;8.68;2.55;;;;;;;21.34;67.26;101020.13;2070004;28;20126;-72
2022/05/31 04:04:05;;;;;;;9.40;2.90;;;;;;;21.50;67.03;101019.75;2062640;28;20042;-73
2022/05/31 04:05:29;;;;;;;6.72;2.85;;;;;;;21.66;66.95;101026.53;2060588;28;20135;-73
2022/05/31 04:06:52;;;;;;;6.05;2.78;;;;;;;21.78;66.76;101031.56;2062536;28;20510;-72
2022/05/31 04:08:13;;;;;;;5.38;2.60;;;;;;;21.91;66.30;101033.00;2067181;28;20100;-72
2022/05/31 04:09:36;;;;;;;7.15;2.05;;;;;;;22.03;66.12;101027.34;2076084;28;20095;-72
2022/05/31 04:11:04;;;;;;;11.00;3.22;;;;;;;22.22;65.95;101019.63;2073087;28;20045;-72
2022/05/31 04:12:29;;;;;;;9.95;2.45;;;;;;;22.38;65.56;101025.47;2070657;28;20141;-71
2022/05/31 04:14:07;;;;;;;5.40;2.60;;;;;;;22.58;65.08;101023.06;2081123;28;20136;-72
2022/05/31 04:15:41;;;;;;;8.43;3.00;;;;;;;22.79;64.66;101026.94;2077471;28;20099;-73
2022/05/31 04:17:04;;;;;;;6.18;2.30;;;;;;;22.96;64.29;101014.75;2064378;28;20046;-72
2022/05/31 04:18:27;;;;;;;12.25;2.65;;;;;;;23.11;63.97;101024.13;2063805;28;20137;-72
2022/05/31 04:19:50;;;;;;;5.85;2.45;;;;;;;23.26;63.53;101026.34;2078960;28;20080;-72
2022/05/31 04:21:16;;;;;;;8.07;2.80;;;;;;;23.41;63.15;101024.97;2078411;28;20038;-72
2022/05/31 04:22:39;;;;;;;7.65;2.65;;;;;;;23.56;62.50;101024.50;2069124;28;20070;-72
2022/05/31 04:24:22;;;;;;;9.15;3.03;;;;;;;23.73;61.53;101027.50;2077309;28;20588;-72
2022/05/31 04:26:07;;;;;;;6.60;2.20;;;;;;;23.92;61.24;101019.63;2080818;28;20041;-72
2022/05/31 04:27:52;;;;;;;8.93;2.58;;;;;;;24.16;60.99;101018.75;2067090;28;20093;-72
2022/05/31 04:29:36;;;;;;;9.43;2.78;;;;;;;24.38;59.98;101020.69;2072831;28;20073;-72
2022/05/31 04:31:06;;;;;;;10.25;3.22;;;;;;;24.57;59.35;101022.66;2084205;28;20045;-73
2022/05/31 04:32:47;;;;;;;8.70;2.15;;;;;;;24.82;58.68;101025.28;2081110;28;20049;-72
2022/05/31 04:34:17;;;;;;;7.43;2.28;;;;;;;25.02;58.48;101016.41;2073220;28;20107;-72
2022/05/31 04:35:38;;;;;;;6.43;2.53;;;;;;;25.27;58.09;101019.88;2067790;28;20054;-72
2022/05/31 04:37:01;;;;;;;9.40;2.17;;;;;;;25.53;57.96;101017.94;2074941;28;20053;-72
2022/05/31 04:38:43;;;;;;;6.25;2.90;;;;;;;25.83;57.39;101016.66;2059135;28;20050;-72
2022/05/31 04:40:12;;;;;;;8.20;2.97;;;;;;;26.10;56.92;101023.56;2077324;28;20537;-72
2022/05/31 04:41:37;;;;;;;8.45;3.00;;;;;;;26.38;56.20;101023.25;2078749;28;20045;-72
2022/05/31 04:43:02;;;;;;;8.73;2.63;;;;;;;26.66;55.89;101019.25;2070720;28;20054;-73
2022/05/31 04:44:27;;;;;;;7.95;2.40;;;;;;;26.93;55.46;101012.56;2078819;28;20371;-71
2022/05/31 04:45:49;;;;;;;8.95;2.50;;;;;;;27.18;54.67;101015.81;2076477;28;20148;-73
2022/05/31 04:47:33;;;;;;;6.47;2.63;;;;;;;27.49;54.33;101015.19;2071632;28;20068;-72
2022/05/31 04:48:57;;;;;;;8.38;2.65;;;;;;;27.75;54.01;101006.63;2073132;28;20042;-72
2022/05/31 04:50:22;;;;;;;7.65;3.03;;;;;;;27.90;53.30;101015.78;2064699;28;20408;-73
2022/05/31 04:51:45;;;;;;;11.02;2.08;;;;;;;28.03;52.79;101016.03;2069849;28;20073;-73
2022/05/31 04:53:12;;;;;;;9.60;2.90;;;;;;;28.19;52.30;101017.03;2078992;28;20099;-73
2022/05/31 04:54:48;;;;;;;8.50;2.70;;;;;;;28.42;51.73;101008.50;2071907;28;20053;-73
2022/05/31 04:56:20;;;;;;;7.70;2.35;;;;;;;28.73;50.94;101013.13;2074039;28;20057;-74
2022/05/31 04:57:46;;;;;;;7.97;2.30;;;;;;;28.99;50.37;101011.69;2067036;28;20045;-72
2022/05/31 04:59:08;;;;;;;9.57;2.97;;;;;;;29.18;49.84;101017.84;2082717;28;20439;-72
2022/05/31 05:00:30;;;;;;;8.85;2.80;;;;;;;29.35;49.54;101016.00;2072432;28;20058;-72
2022/05/31 05:02:00;;;;;;;11.55;2.83;;;;;;;29.56;48.96;101021.06;2076247;28;20037;-70
2022/05/31 05:03:37;;;;;;;11.55;3.05;;;;;;;29.81;48.79;101020.47;2078822;28;20457;-71
2022/05/31 05:05:00;;;;;;;11.35;2.35;;;;;;;30.03;48.07;101020.97;2078506;28;20041;-70
2022/05/31 05:06:42;;;;;;;11.45;2.83;;;;;;;30.32;47.74;101018.31;2080751;28;20077;-71
2022/05/31 05:08:06;;;;;;;7.35;2.33;;;;;;;30.43;47.34;101018.50;2072248;28;20431;-71
2022/05/31 05:09:32;;;;;;;11.52;3.45;;;;;;;30.44;47.06;101021.13;2073989;28;20041;-71
2022/05/31 05:11:17;;;;;;;8.77;2.55;;;;;;;30.60;46.37;101020.19;2086857;28;20103;-72
2022/05/31 05:12:50;;;;;;;8.63;2.15;;;;;;;30.79;45.60;101024.34;2080140;28;20057;-72
2022/05/31 05:14:33;;;;;;;10.32;2.70;;;;;;;30.92;45.13;101020.88;2085949;28;20404;-71
2022/05/31 05:15:59;;;;;;;8.68;2.38;;;;;;;31.02;44.99;101022.00;2078515;28;20073;-72
2022/05/31 05:17:27;;;;;;;11.30;2.40;;;;;;;30.99;44.95;101023.06;2077119;28;20045;-72
2022/05/31 05:18:50;;;;;;;9.82;2.47;;;;;;;30.99;45.17;101024.91;2073880;28;20120;-71
2022/05/31 05:20:13;;;;;;;6.70;1.85;;;;;;;31.16;44.66;101024.72;2074915;28;20048;-72
2022/05/31 05:21:36;;;;;;;7.75;2.20;;;;;;;31.19;44.49;101028.13;2071776;28;20108;-72
2022/05/31 05:22:58;;;;;;;10.07;2.30;;;;;;;31.26;44.76;101026.75;2079958;28;20056;-72
2022/05/31 05:24:21;;;;;;;8.90;2.45;;;;;;;31.44;44.50;101024.63;2076967;28;20140;-71
2022/05/31 05:26:07;;;;;;;12.52;2.58;;;;;;;31.70;43.89;101024.78;2083456;28;20575;-71
2022/05/31 05:27:32;;;;;;;8.98;2.17;;;;;;;31.84;43.58;101030.13;2084346;28;20093;-72
2022/05/31 05:30:53;;;;;;;8.85;2.13;;;;;;;31.97;43.31;101026.47;2080237;28;20053;-72
2022/05/31 05:32:16;;;;;;;6.82;2.50;;;;;;;32.01;43.38;101024.41;2082503;28;20459;-71
2022/05/31 05:34:09;;;;;;;8.32;2.00;;;;;;;32.09;43.05;101022.03;2080524;28;20053;-73
2022/05/31 05:35:58;;;;;;;5.90;2.33;;;;;;;32.14;42.98;101022.59;2088556;28;20397;-72
2022/05/31 05:37:21;;;;;;;9.95;2.42;;;;;;;32.18;42.67;101026.84;2077888;28;20045;-73
2022/05/31 05:38:44;;;;;;;7.47;2.55;;;;;;;32.21;42.60;101023.03;2082660;28;20392;-72
2022/05/31 05:40:38;;;;;;;10.15;2.50;;;;;;;32.32;42.17;101021.28;2080195;28;20084;-73
2022/05/31 05:42:06;;;;;;;8.32;2.10;;;;;;;32.38;41.71;101023.59;2070640;28;20088;-72
2022/05/31 05:44:00;;;;;;;6.60;2.05;;;;;;;32.46;41.83;101023.03;2080783;28;20079;-72
2022/05/31 05:45:29;;;;;;;7.78;1.92;;;;;;;32.49;41.63;101019.22;2074061;28;20069;-73
2022/05/31 05:46:52;;;;;;;10.45;2.20;;;;;;;32.46;41.70;101028.50;2072591;28;20050;-72
2022/05/31 05:48:15;;;;;;;7.65;2.40;;;;;;;32.51;41.67;101018.13;2075358;28;20448;-72
2022/05/31 05:49:36;;;;;;;8.23;1.85;;;;;;;32.63;41.59;101025.44;2077961;28;20041;-72
2022/05/31 05:51:17;;;;;;;6.75;2.05;;;;;;;32.77;41.36;101024.47;2078611;28;20355;-72
2022/05/31 05:53:06;;;;;;;7.90;2.00;;;;;;;32.59;41.67;101029.38;2080579;28;20057;-72
2022/05/31 05:54:38;;;;;;;9.55;2.40;;;;;;;32.55;41.77;101024.25;2083990;28;20052;-72
2022/05/31 05:56:33;;;;;;;9.80;2.40;;;;;;;32.56;41.50;101024.13;2050669;28;20074;-73
2022/05/31 05:58:14;;;;;;;9.18;2.40;;;;;;;32.66;41.33;101029.81;2080630;28;20164;-73
2022/05/31 05:59:55;;;;;;;6.68;1.70;;;;;;;32.94;41.17;101026.84;2080361;28;20133;-72
2022/05/31 06:01:50;;;;;;;11.35;2.15;;;;;;;33.17;40.53;101031.50;2079828;28;20045;-72
2022/05/31 06:03:37;;;;;;;8.75;1.92;;;;;;;33.31;39.60;101027.75;2088720;28;20788;-73
2022/05/31 06:05:07;;;;;;;4.97;1.88;;;;;;;33.45;38.67;101029.47;2076135;28;20054;-72
2022/05/31 06:06:33;;;;;;;8.70;2.00;;;;;;;33.54;38.07;101018.66;2071790;28;20049;-73
2022/05/31 06:08:00;;;;;;;8.77;2.42;;;;;;;33.62;37.66;101034.50;2079978;28;20580;-73
2022/05/31 06:09:25;;;;;;;11.90;2.50;;;;;;;33.69;37.39;101030.31;2076415;28;20485;-73
2022/05/31 06:11:02;;;;;;;8.85;2.58;;;;;;;33.74;36.97;101032.75;2084723;28;20173;-73
2022/05/31 06:12:30;;;;;;;14.82;2.90;;;;;;;33.74;36.81;101033.59;2078965;28;20037;-73
2022/05/31 06:13:57;;;;;;;8.85;2.53;;;;;;;33.75;36.35;101029.88;2076703;28;20573;-73
2022/05/31 06:15:24;;;;;;;6.45;1.90;;;;;;;33.78;36.25;101026.03;2068320;28;20041;-73
2022/05/31 06:16:50;;;;;;;5.90;1.77;;;;;;;33.77;36.55;101027.03;2072696;28;20255;-73
2022/05/31 06:18:17;;;;;;;9.02;2.10;;;;;;;33.63;36.89;101031.66;2084253;28;20057;-73
2022/05/31 06:19:41;;;;;;;13.65;3.05;;;;;;;33.71;36.98;101032.97;2072346;28;20077;-73
2022/05/31 06:21:07;;;;;;;9.25;2.00;;;;;;;33.71;36.16;101032.97;2086549;28;20114;-72
2022/05/31 06:22:31;;;;;;;8.40;1.80;;;;;;;33.62;36.01;101034.50;2086534;28;20145;-73
2022/05/31 06:24:07;;;;;;;12.32;2.55;;;;;;;33.71;35.93;101022.03;2079707;28;20041;-74
2022/05/31 06:25:30;;;;;;;11.02;2.33;;;;;;;33.86;35.64;101023.59;2077956;28;20406;-73
2022/05/31 06:27:11;;;;;;;7.25;2.00;;;;;;;33.86;35.68;101027.19;2084677;28;20505;-73
2022/05/31 06:28:33;;;;;;;7.70;1.90;;;;;;;33.76;35.96;101037.09;2073980;28;20084;-73
2022/05/31 06:29:55;;;;;;;12.52;2.05;;;;;;;33.74;35.80;101030.84;2076160;28;20049;-73
2022/05/31 06:31:18;;;;;;;6.28;1.98;;;;;;;33.80;35.20;101026.81;2069019;28;20659;-74
2022/05/31 06:32:42;;;;;;;14.43;1.90;;;;;;;33.68;34.93;101023.09;2070423;28;20128;-73
2022/05/31 06:34:05;;;;;;;5.55;1.65;;;;;;;33.59;35.25;101019.22;2081991;28;20037;-73
2022/05/31 06:35:58;;;;;;;9.73;1.80;;;;;;;33.62;35.51;101029.03;2067258;28;20162;-73
2022/05/31 06:37:21;;;;;;;6.75;1.95;;;;;;;33.69;35.10;101018.47;2069772;28;20477;-74
2022/05/31 06:38:45;;;;;;;11.32;1.88;;;;;;;33.72;35.00;101021.03;2072689;28;20049;-72
2022/05/31 06:40:09;;;;;;;7.97;1.70;;;;;;;33.80;34.87;101016.72;2074122;28;20033;-74
2022/05/31 06:41:58;;;;;;;17.23;3.20;;;;;;;33.88;34.79;101016.09;2077351;28;20087;-73
2022/05/31 06:43:43;;;;;;;5.05;1.90;;;;;;;33.93;34.28;101016.63;2087217;28;20060;-72
2022/05/31 06:45:25;;;;;;;6.90;1.77;;;;;;;33.77;33.74;101016.94;2086628;28;20041;-72
2022/05/31 06:47:12;;;;;;;5.88;1.50;;;;;;;33.48;33.94;101015.50;2071122;28;20427;-73
2022/05/31 06:49:09;;;;;;;11.00;2.28;;;;;;;33.41;34.04;101012.38;2076101;28;20085;-73
2022/05/31 06:50:50;;;;;;;5.13;1.52;;;;;;;33.53;34.09;100999.63;2087411;28;20088;-72
2022/05/31 06:58:20;;;;;;;13.48;2.30;;;;;;;33.80;33.53;101013.97;2050399;28;20098;-71
2022/05/31 06:59:50;;;;;;;8.15;2.35;;;;;;;33.82;33.49;101013.84;2076390;28;20525;-73
2022/05/31 07:01:12;;;;;;;8.60;1.50;;;;;;;33.81;33.39;101020.31;2074179;28;20045;-73
2022/05/31 07:02:36;;;;;;;8.63;1.92;;;;;;;33.66;33.19;101011.38;2069434;28;20038;-72